sensor_id;sensor_type;location;lat;lon;timestamp;P1;durP1;ratioP1;P2;durP2;ratioP2
73382;SDS011;61600;48.126;11.542;2022-10-17T00:00:51;5.00;;;2.33;;
73382;SDS011;61600;48.126;11.542;2022-10-17T00:03:20;3.67;;;2.25;;
73382;SDS011;61600;48.126;11.542;2022-10-17T00:05:48;5.22;;;2.15;;
73382;SDS011;61600;48.126;11.542;2022-10-17T00:08:15;9.30;;;2.38;;
73382;SDS011;61600;48.126;11.542;2022-10-17T00:10:42;5.00;;;2.35;;
73382;SDS011;61600;48.126;11.542;2022-10-17T00:13:11;4.50;;;1.90;;
73382;SDS011;61600;48.126;11.542;2022-10-17T00:15:37;5.90;;;2.30;;
73382;SDS011;61600;48.126;11.542;2022-10-17T00:18:08;4.50;;;2.40;;
73382;SDS011;61600;48.126;11.542;2022-10-17T00:20:34;5.60;;;2.70;;
73382;SDS011;61600;48.126;11.542;2022-10-17T00:23:00;4.90;;;2.33;;
73382;SDS011;61600;48.126;11.542;2022-10-17T00:25:25;5.30;;;2.30;;
73382;SDS011;61600;48.126;11.542;2022-10-17T00:27:51;7.03;;;3.28;;
73382;SDS011;61600;48.126;11.542;2022-10-17T00:30:20;7.38;;;2.22;;
73382;SDS011;61600;48.126;11.542;2022-10-17T00:32:45;4.45;;;2.20;;
73382;SDS011;61600;48.126;11.542;2022-10-17T00:35:11;5.80;;;2.00;;
73382;SDS011;61600;48.126;11.542;2022-10-17T00:37:37;4.28;;;1.98;;
73382;SDS011;61600;48.126;11.542;2022-10-17T00:40:03;5.57;;;2.38;;
73382;SDS011;61600;48.126;11.542;2022-10-17T00:42:29;3.75;;;1.90;;
73382;SDS011;61600;48.126;11.542;2022-10-17T00:47:23;4.43;;;2.20;;
73382;SDS011;61600;48.126;11.542;2022-10-17T00:49:49;2.88;;;1.73;;
73382;SDS011;61600;48.126;11.542;2022-10-17T00:52:17;3.10;;;1.80;;
73382;SDS011;61600;48.126;11.542;2022-10-17T00:55:00;4.50;;;2.33;;
73382;SDS011;61600;48.126;11.542;2022-10-17T00:57:48;5.35;;;1.85;;
73382;SDS011;61600;48.126;11.542;2022-10-17T01:00:17;5.28;;;1.92;;
73382;SDS011;61600;48.126;11.542;2022-10-17T01:02:43;5.45;;;1.95;;
73382;SDS011;61600;48.126;11.542;2022-10-17T01:05:09;4.65;;;1.80;;
73382;SDS011;61600;48.126;11.542;2022-10-17T01:07:39;6.43;;;2.33;;
73382;SDS011;61600;48.126;11.542;2022-10-17T01:10:09;5.47;;;2.17;;
73382;SDS011;61600;48.126;11.542;2022-10-17T01:15:42;5.43;;;1.98;;
73382;SDS011;61600;48.126;11.542;2022-10-17T01:18:24;5.55;;;2.38;;
73382;SDS011;61600;48.126;11.542;2022-10-17T01:27:12;5.38;;;2.20;;
73382;SDS011;61600;48.126;11.542;2022-10-17T01:33:10;4.78;;;1.88;;
73382;SDS011;61600;48.126;11.542;2022-10-17T01:35:49;4.32;;;2.13;;
73382;SDS011;61600;48.126;11.542;2022-10-17T01:38:21;4.65;;;1.90;;
73382;SDS011;61600;48.126;11.542;2022-10-17T01:41:22;4.78;;;2.00;;
73382;SDS011;61600;48.126;11.542;2022-10-17T01:43:58;2.85;;;1.63;;
73382;SDS011;61600;48.126;11.542;2022-10-17T01:46:39;3.97;;;1.90;;
73382;SDS011;61600;48.126;11.542;2022-10-17T01:49:09;6.03;;;2.00;;
73382;SDS011;61600;48.126;11.542;2022-10-17T01:51:41;3.47;;;1.83;;
73382;SDS011;61600;48.126;11.542;2022-10-17T01:55:11;6.07;;;1.80;;
73382;SDS011;61600;48.126;11.542;2022-10-17T01:59:59;3.38;;;1.70;;
73382;SDS011;61600;48.126;11.542;2022-10-17T02:02:28;3.83;;;1.67;;
73382;SDS011;61600;48.126;11.542;2022-10-17T02:04:58;7.78;;;1.98;;
73382;SDS011;61600;48.126;11.542;2022-10-17T02:07:29;3.95;;;1.73;;
73382;SDS011;61600;48.126;11.542;2022-10-17T02:10:01;3.10;;;1.85;;
73382;SDS011;61600;48.126;11.542;2022-10-17T02:15:15;5.28;;;1.92;;
73382;SDS011;61600;48.126;11.542;2022-10-17T02:20:56;3.53;;;1.52;;
73382;SDS011;61600;48.126;11.542;2022-10-17T02:29:20;3.60;;;1.60;;
73382;SDS011;61600;48.126;11.542;2022-10-17T02:31:57;4.45;;;1.52;;
73382;SDS011;61600;48.126;11.542;2022-10-17T02:37:01;3.10;;;1.58;;
73382;SDS011;61600;48.126;11.542;2022-10-17T02:39:29;3.92;;;1.70;;
73382;SDS011;61600;48.126;11.542;2022-10-17T02:41:57;3.25;;;1.50;;
73382;SDS011;61600;48.126;11.542;2022-10-17T02:44:30;3.15;;;1.55;;
73382;SDS011;61600;48.126;11.542;2022-10-17T02:47:08;7.07;;;1.70;;
73382;SDS011;61600;48.126;11.542;2022-10-17T02:49:42;2.65;;;1.50;;
73382;SDS011;61600;48.126;11.542;2022-10-17T02:55:17;2.70;;;1.40;;
73382;SDS011;61600;48.126;11.542;2022-10-17T02:57:47;25.70;;;2.90;;
73382;SDS011;61600;48.126;11.542;2022-10-17T03:00:20;4.95;;;1.80;;
73382;SDS011;61600;48.126;11.542;2022-10-17T03:02:48;5.35;;;2.00;;
73382;SDS011;61600;48.126;11.542;2022-10-17T03:05:16;3.65;;;1.58;;
73382;SDS011;61600;48.126;11.542;2022-10-17T03:07:49;3.17;;;1.60;;
73382;SDS011;61600;48.126;11.542;2022-10-17T03:10:16;2.97;;;1.50;;
73382;SDS011;61600;48.126;11.542;2022-10-17T03:12:42;5.13;;;1.80;;
73382;SDS011;61600;48.126;11.542;2022-10-17T03:15:07;3.65;;;1.50;;
73382;SDS011;61600;48.126;11.542;2022-10-17T03:17:34;2.03;;;1.38;;
73382;SDS011;61600;48.126;11.542;2022-10-17T03:20:04;5.82;;;1.70;;
73382;SDS011;61600;48.126;11.542;2022-10-17T03:22:31;3.65;;;1.80;;
73382;SDS011;61600;48.126;11.542;2022-10-17T03:24:57;3.72;;;1.90;;
73382;SDS011;61600;48.126;11.542;2022-10-17T03:27:23;3.53;;;1.50;;
73382;SDS011;61600;48.126;11.542;2022-10-17T03:29:52;2.97;;;1.60;;
73382;SDS011;61600;48.126;11.542;2022-10-17T03:32:17;4.22;;;1.85;;
73382;SDS011;61600;48.126;11.542;2022-10-17T03:34:43;4.78;;;1.75;;
73382;SDS011;61600;48.126;11.542;2022-10-17T03:37:08;3.05;;;1.58;;
73382;SDS011;61600;48.126;11.542;2022-10-17T03:39:37;4.65;;;1.90;;
73382;SDS011;61600;48.126;11.542;2022-10-17T03:42:03;5.15;;;2.00;;
73382;SDS011;61600;48.126;11.542;2022-10-17T03:44:28;3.08;;;1.75;;
73382;SDS011;61600;48.126;11.542;2022-10-17T03:46:54;5.60;;;2.10;;
73382;SDS011;61600;48.126;11.542;2022-10-17T03:49:19;3.42;;;1.80;;
73382;SDS011;61600;48.126;11.542;2022-10-17T03:51:45;2.95;;;1.33;;
73382;SDS011;61600;48.126;11.542;2022-10-17T03:54:11;3.78;;;1.70;;
73382;SDS011;61600;48.126;11.542;2022-10-17T03:56:36;3.08;;;1.52;;
73382;SDS011;61600;48.126;11.542;2022-10-17T03:59:05;5.72;;;2.08;;
73382;SDS011;61600;48.126;11.542;2022-10-17T04:01:31;3.45;;;1.90;;
73382;SDS011;61600;48.126;11.542;2022-10-17T04:03:59;4.22;;;2.10;;
73382;SDS011;61600;48.126;11.542;2022-10-17T04:06:25;4.15;;;2.10;;
73382;SDS011;61600;48.126;11.542;2022-10-17T04:09:00;11.60;;;1.83;;
73382;SDS011;61600;48.126;11.542;2022-10-17T04:11:27;4.28;;;1.90;;
73382;SDS011;61600;48.126;11.542;2022-10-17T04:13:53;8.30;;;2.70;;
73382;SDS011;61600;48.126;11.542;2022-10-17T04:16:20;7.93;;;2.42;;
73382;SDS011;61600;48.126;11.542;2022-10-17T04:18:46;4.78;;;2.53;;
73382;SDS011;61600;48.126;11.542;2022-10-17T04:21:16;5.18;;;2.13;;
73382;SDS011;61600;48.126;11.542;2022-10-17T04:23:42;6.15;;;2.40;;
73382;SDS011;61600;48.126;11.542;2022-10-17T04:26:08;9.75;;;2.13;;
73382;SDS011;61600;48.126;11.542;2022-10-17T04:28:34;4.50;;;2.05;;
73382;SDS011;61600;48.126;11.542;2022-10-17T04:31:04;11.50;;;2.20;;
73382;SDS011;61600;48.126;11.542;2022-10-17T04:33:32;7.50;;;1.85;;
73382;SDS011;61600;48.126;11.542;2022-10-17T04:36:02;7.10;;;3.10;;
73382;SDS011;61600;48.126;11.542;2022-10-17T04:38:31;5.50;;;2.40;;
73382;SDS011;61600;48.126;11.542;2022-10-17T04:41:01;4.05;;;2.25;;
73382;SDS011;61600;48.126;11.542;2022-10-17T04:43:29;9.55;;;2.55;;
73382;SDS011;61600;48.126;11.542;2022-10-17T04:45:56;5.43;;;2.50;;
73382;SDS011;61600;48.126;11.542;2022-10-17T04:48:24;6.15;;;2.08;;
73382;SDS011;61600;48.126;11.542;2022-10-17T04:50:53;5.25;;;2.15;;
73382;SDS011;61600;48.126;11.542;2022-10-17T04:53:20;4.90;;;2.40;;
73382;SDS011;61600;48.126;11.542;2022-10-17T04:55:46;4.65;;;2.63;;
73382;SDS011;61600;48.126;11.542;2022-10-17T04:58:12;4.78;;;2.28;;
73382;SDS011;61600;48.126;11.542;2022-10-17T05:00:38;5.90;;;2.53;;
73382;SDS011;61600;48.126;11.542;2022-10-17T05:03:03;5.80;;;2.53;;
73382;SDS011;61600;48.126;11.542;2022-10-17T05:05:29;4.93;;;2.13;;
73382;SDS011;61600;48.126;11.542;2022-10-17T05:07:55;5.32;;;2.60;;
73382;SDS011;61600;48.126;11.542;2022-10-17T05:10:20;5.00;;;2.55;;
73382;SDS011;61600;48.126;11.542;2022-10-17T05:12:47;5.90;;;2.67;;
73382;SDS011;61600;48.126;11.542;2022-10-17T05:15:13;5.90;;;2.85;;
73382;SDS011;61600;48.126;11.542;2022-10-17T05:17:39;5.57;;;2.42;;
73382;SDS011;61600;48.126;11.542;2022-10-17T05:20:05;5.78;;;2.85;;
73382;SDS011;61600;48.126;11.542;2022-10-17T05:22:31;6.07;;;2.90;;
73382;SDS011;61600;48.126;11.542;2022-10-17T05:24:57;7.05;;;2.97;;
73382;SDS011;61600;48.126;11.542;2022-10-17T05:27:23;6.32;;;2.97;;
73382;SDS011;61600;48.126;11.542;2022-10-17T05:29:48;6.40;;;2.65;;
73382;SDS011;61600;48.126;11.542;2022-10-17T05:32:14;6.47;;;2.55;;
73382;SDS011;61600;48.126;11.542;2022-10-17T05:34:45;6.20;;;2.92;;
73382;SDS011;61600;48.126;11.542;2022-10-17T05:37:11;5.45;;;2.33;;
73382;SDS011;61600;48.126;11.542;2022-10-17T05:39:37;7.53;;;2.63;;
73382;SDS011;61600;48.126;11.542;2022-10-17T05:42:02;7.53;;;3.00;;
73382;SDS011;61600;48.126;11.542;2022-10-17T05:44:29;5.47;;;2.72;;
73382;SDS011;61600;48.126;11.542;2022-10-17T05:46:59;5.93;;;2.78;;
73382;SDS011;61600;48.126;11.542;2022-10-17T05:49:25;5.60;;;2.70;;
73382;SDS011;61600;48.126;11.542;2022-10-17T05:51:56;9.23;;;3.35;;
73382;SDS011;61600;48.126;11.542;2022-10-17T05:54:22;9.18;;;2.95;;
73382;SDS011;61600;48.126;11.542;2022-10-17T05:56:51;7.70;;;2.58;;
73382;SDS011;61600;48.126;11.542;2022-10-17T05:59:18;8.25;;;2.65;;
73382;SDS011;61600;48.126;11.542;2022-10-17T06:01:44;9.02;;;3.00;;
73382;SDS011;61600;48.126;11.542;2022-10-17T06:04:09;8.07;;;3.00;;
73382;SDS011;61600;48.126;11.542;2022-10-17T06:06:35;8.95;;;3.47;;
73382;SDS011;61600;48.126;11.542;2022-10-17T06:09:02;7.40;;;2.75;;
73382;SDS011;61600;48.126;11.542;2022-10-17T06:11:28;8.27;;;3.40;;
73382;SDS011;61600;48.126;11.542;2022-10-17T06:13:54;8.63;;;2.80;;
73382;SDS011;61600;48.126;11.542;2022-10-17T06:16:20;4.88;;;2.55;;
73382;SDS011;61600;48.126;11.542;2022-10-17T06:18:46;7.88;;;2.92;;
73382;SDS011;61600;48.126;11.542;2022-10-17T06:21:14;5.45;;;2.88;;
73382;SDS011;61600;48.126;11.542;2022-10-17T06:23:43;5.60;;;2.65;;
73382;SDS011;61600;48.126;11.542;2022-10-17T06:26:09;8.25;;;2.80;;
73382;SDS011;61600;48.126;11.542;2022-10-17T06:28:35;7.03;;;2.88;;
73382;SDS011;61600;48.126;11.542;2022-10-17T06:31:12;5.53;;;2.70;;
73382;SDS011;61600;48.126;11.542;2022-10-17T06:33:40;7.82;;;2.80;;
73382;SDS011;61600;48.126;11.542;2022-10-17T06:36:06;8.57;;;2.67;;
73382;SDS011;61600;48.126;11.542;2022-10-17T06:38:33;5.25;;;2.85;;
73382;SDS011;61600;48.126;11.542;2022-10-17T06:41:08;6.45;;;3.05;;
73382;SDS011;61600;48.126;11.542;2022-10-17T06:43:35;11.27;;;3.60;;
73382;SDS011;61600;48.126;11.542;2022-10-17T06:46:02;12.48;;;5.13;;
73382;SDS011;61600;48.126;11.542;2022-10-17T06:48:28;8.23;;;2.97;;
73382;SDS011;61600;48.126;11.542;2022-10-17T06:50:57;6.50;;;2.70;;
73382;SDS011;61600;48.126;11.542;2022-10-17T06:53:25;4.75;;;2.63;;
73382;SDS011;61600;48.126;11.542;2022-10-17T06:55:56;5.53;;;1.98;;
73382;SDS011;61600;48.126;11.542;2022-10-17T06:58:30;4.28;;;1.75;;
73382;SDS011;61600;48.126;11.542;2022-10-17T07:01:01;7.03;;;2.35;;
73382;SDS011;61600;48.126;11.542;2022-10-17T07:03:30;5.28;;;2.20;;
73382;SDS011;61600;48.126;11.542;2022-10-17T07:05:56;3.78;;;2.10;;
73382;SDS011;61600;48.126;11.542;2022-10-17T07:08:24;3.33;;;1.95;;
73382;SDS011;61600;48.126;11.542;2022-10-17T07:10:50;4.22;;;2.17;;
73382;SDS011;61600;48.126;11.542;2022-10-17T07:13:16;6.45;;;2.47;;
73382;SDS011;61600;48.126;11.542;2022-10-17T07:15:45;4.70;;;2.20;;
73382;SDS011;61600;48.126;11.542;2022-10-17T07:18:11;5.05;;;2.28;;
73382;SDS011;61600;48.126;11.542;2022-10-17T07:20:37;4.85;;;2.10;;
73382;SDS011;61600;48.126;11.542;2022-10-17T07:23:07;5.05;;;2.50;;
73382;SDS011;61600;48.126;11.542;2022-10-17T07:25:36;4.28;;;2.17;;
73382;SDS011;61600;48.126;11.542;2022-10-17T07:28:01;4.15;;;1.92;;
73382;SDS011;61600;48.126;11.542;2022-10-17T07:30:28;9.10;;;3.05;;
73382;SDS011;61600;48.126;11.542;2022-10-17T07:32:54;4.57;;;2.50;;
73382;SDS011;61600;48.126;11.542;2022-10-17T07:35:20;5.85;;;2.38;;
73382;SDS011;61600;48.126;11.542;2022-10-17T07:37:46;6.28;;;2.20;;
73382;SDS011;61600;48.126;11.542;2022-10-17T07:40:12;5.43;;;2.60;;
73382;SDS011;61600;48.126;11.542;2022-10-17T07:42:38;7.38;;;2.80;;
73382;SDS011;61600;48.126;11.542;2022-10-17T07:45:03;4.30;;;2.30;;
73382;SDS011;61600;48.126;11.542;2022-10-17T07:47:30;5.38;;;2.53;;
73382;SDS011;61600;48.126;11.542;2022-10-17T07:50:00;6.10;;;2.58;;
73382;SDS011;61600;48.126;11.542;2022-10-17T07:52:32;4.15;;;2.25;;
73382;SDS011;61600;48.126;11.542;2022-10-17T07:54:58;4.97;;;2.30;;
73382;SDS011;61600;48.126;11.542;2022-10-17T07:57:33;6.15;;;2.40;;
73382;SDS011;61600;48.126;11.542;2022-10-17T08:00:01;6.18;;;2.97;;
73382;SDS011;61600;48.126;11.542;2022-10-17T08:02:30;7.18;;;3.33;;
73382;SDS011;61600;48.126;11.542;2022-10-17T08:04:58;5.13;;;2.88;;
73382;SDS011;61600;48.126;11.542;2022-10-17T08:07:23;11.38;;;5.32;;
73382;SDS011;61600;48.126;11.542;2022-10-17T08:09:49;6.60;;;2.80;;
73382;SDS011;61600;48.126;11.542;2022-10-17T08:12:15;4.50;;;2.58;;
73382;SDS011;61600;48.126;11.542;2022-10-17T08:14:41;4.57;;;2.40;;
73382;SDS011;61600;48.126;11.542;2022-10-17T08:17:06;9.75;;;2.30;;
73382;SDS011;61600;48.126;11.542;2022-10-17T08:19:32;7.25;;;3.65;;
73382;SDS011;61600;48.126;11.542;2022-10-17T08:22:03;4.78;;;2.22;;
73382;SDS011;61600;48.126;11.542;2022-10-17T08:24:28;5.55;;;2.83;;
73382;SDS011;61600;48.126;11.542;2022-10-17T08:26:55;4.97;;;2.47;;
73382;SDS011;61600;48.126;11.542;2022-10-17T08:29:22;9.32;;;3.58;;
73382;SDS011;61600;48.126;11.542;2022-10-17T08:31:57;8.07;;;2.67;;
73382;SDS011;61600;48.126;11.542;2022-10-17T08:34:22;6.57;;;2.80;;
73382;SDS011;61600;48.126;11.542;2022-10-17T08:36:51;4.45;;;2.17;;
73382;SDS011;61600;48.126;11.542;2022-10-17T08:39:20;4.53;;;2.38;;
73382;SDS011;61600;48.126;11.542;2022-10-17T08:47:42;3.83;;;2.17;;
73382;SDS011;61600;48.126;11.542;2022-10-17T08:50:50;4.10;;;2.03;;
73382;SDS011;61600;48.126;11.542;2022-10-17T08:55:53;5.30;;;2.08;;
73382;SDS011;61600;48.126;11.542;2022-10-17T08:58:27;5.00;;;1.83;;
73382;SDS011;61600;48.126;11.542;2022-10-17T09:07:09;2.83;;;1.80;;
73382;SDS011;61600;48.126;11.542;2022-10-17T09:18:47;4.78;;;1.90;;
73382;SDS011;61600;48.126;11.542;2022-10-17T09:21:35;2.65;;;1.73;;
73382;SDS011;61600;48.126;11.542;2022-10-17T09:24:18;5.47;;;1.90;;
73382;SDS011;61600;48.126;11.542;2022-10-17T09:26:52;4.32;;;2.20;;
73382;SDS011;61600;48.126;11.542;2022-10-17T09:29:22;4.28;;;2.00;;
73382;SDS011;61600;48.126;11.542;2022-10-17T09:31:57;6.18;;;2.30;;
73382;SDS011;61600;48.126;11.542;2022-10-17T09:34:32;6.32;;;1.92;;
73382;SDS011;61600;48.126;11.542;2022-10-17T09:37:00;4.53;;;2.25;;
73382;SDS011;61600;48.126;11.542;2022-10-17T09:39:29;2.33;;;1.35;;
73382;SDS011;61600;48.126;11.542;2022-10-17T09:41:58;4.07;;;2.25;;
73382;SDS011;61600;48.126;11.542;2022-10-17T09:44:29;5.18;;;2.00;;
73382;SDS011;61600;48.126;11.542;2022-10-17T09:47:17;4.43;;;2.28;;
73382;SDS011;61600;48.126;11.542;2022-10-17T09:49:50;3.50;;;2.08;;
73382;SDS011;61600;48.126;11.542;2022-10-17T09:52:20;3.53;;;1.80;;
73382;SDS011;61600;48.126;11.542;2022-10-17T09:54:57;3.08;;;1.80;;
73382;SDS011;61600;48.126;11.542;2022-10-17T09:57:49;4.35;;;1.92;;
73382;SDS011;61600;48.126;11.542;2022-10-17T10:00:23;6.22;;;1.77;;
73382;SDS011;61600;48.126;11.542;2022-10-17T10:05:41;3.15;;;1.80;;
73382;SDS011;61600;48.126;11.542;2022-10-17T10:10:43;3.88;;;1.70;;
73382;SDS011;61600;48.126;11.542;2022-10-17T10:13:17;4.65;;;1.70;;
73382;SDS011;61600;48.126;11.542;2022-10-17T10:15:48;5.00;;;2.00;;
73382;SDS011;61600;48.126;11.542;2022-10-17T10:24:05;3.85;;;1.90;;
73382;SDS011;61600;48.126;11.542;2022-10-17T10:26:41;7.10;;;2.95;;
73382;SDS011;61600;48.126;11.542;2022-10-17T10:32:11;11.30;;;3.42;;
73382;SDS011;61600;48.126;11.542;2022-10-17T10:37:55;3.00;;;2.00;;
73382;SDS011;61600;48.126;11.542;2022-10-17T10:43:15;6.28;;;3.28;;
73382;SDS011;61600;48.126;11.542;2022-10-17T10:45:50;4.03;;;1.58;;
73382;SDS011;61600;48.126;11.542;2022-10-17T10:50:52;3.72;;;1.70;;
73382;SDS011;61600;48.126;11.542;2022-10-17T11:04:18;3.70;;;1.73;;
73382;SDS011;61600;48.126;11.542;2022-10-17T11:07:01;4.55;;;1.63;;
73382;SDS011;61600;48.126;11.542;2022-10-17T11:09:43;4.93;;;1.50;;
73382;SDS011;61600;48.126;11.542;2022-10-17T11:12:17;4.40;;;1.50;;
73382;SDS011;61600;48.126;11.542;2022-10-17T11:15:34;3.75;;;1.58;;
73382;SDS011;61600;48.126;11.542;2022-10-17T11:21:18;3.80;;;1.90;;
73382;SDS011;61600;48.126;11.542;2022-10-17T11:29:35;3.50;;;1.58;;
73382;SDS011;61600;48.126;11.542;2022-10-17T11:32:15;2.22;;;1.40;;
73382;SDS011;61600;48.126;11.542;2022-10-17T11:35:06;2.80;;;1.40;;
73382;SDS011;61600;48.126;11.542;2022-10-17T11:38:03;7.75;;;1.52;;
73382;SDS011;61600;48.126;11.542;2022-10-17T11:40:52;7.93;;;1.70;;
73382;SDS011;61600;48.126;11.542;2022-10-17T11:43:27;3.28;;;1.55;;
73382;SDS011;61600;48.126;11.542;2022-10-17T11:45:59;5.20;;;1.60;;
73382;SDS011;61600;48.126;11.542;2022-10-17T11:48:34;2.10;;;1.38;;
73382;SDS011;61600;48.126;11.542;2022-10-17T11:51:10;3.70;;;1.55;;
73382;SDS011;61600;48.126;11.542;2022-10-17T11:53:46;4.40;;;1.50;;
73382;SDS011;61600;48.126;11.542;2022-10-17T11:56:20;4.22;;;1.60;;
73382;SDS011;61600;48.126;11.542;2022-10-17T11:59:17;3.88;;;1.60;;
73382;SDS011;61600;48.126;11.542;2022-10-17T12:01:55;3.95;;;1.50;;
73382;SDS011;61600;48.126;11.542;2022-10-17T12:04:44;3.03;;;1.52;;
73382;SDS011;61600;48.126;11.542;2022-10-17T12:15:56;4.10;;;1.60;;
73382;SDS011;61600;48.126;11.542;2022-10-17T12:18:42;3.47;;;1.60;;
73382;SDS011;61600;48.126;11.542;2022-10-17T12:21:12;1.38;;;1.05;;
73382;SDS011;61600;48.126;11.542;2022-10-17T12:23:38;2.00;;;1.30;;
73382;SDS011;61600;48.126;11.542;2022-10-17T12:26:08;3.85;;;1.58;;
73382;SDS011;61600;48.126;11.542;2022-10-17T12:28:44;2.30;;;1.40;;
73382;SDS011;61600;48.126;11.542;2022-10-17T12:33:50;4.88;;;1.60;;
73382;SDS011;61600;48.126;11.542;2022-10-17T12:54:45;4.28;;;1.73;;
73382;SDS011;61600;48.126;11.542;2022-10-17T12:57:18;3.05;;;1.45;;
73382;SDS011;61600;48.126;11.542;2022-10-17T12:59:49;3.85;;;1.67;;
73382;SDS011;61600;48.126;11.542;2022-10-17T13:02:18;3.50;;;1.50;;
73382;SDS011;61600;48.126;11.542;2022-10-17T13:04:47;2.63;;;1.05;;
73382;SDS011;61600;48.126;11.542;2022-10-17T13:07:20;2.50;;;1.15;;
73382;SDS011;61600;48.126;11.542;2022-10-17T13:09:47;1.85;;;1.10;;
73382;SDS011;61600;48.126;11.542;2022-10-17T13:12:17;1.77;;;1.17;;
73382;SDS011;61600;48.126;11.542;2022-10-17T13:14:50;1.80;;;1.13;;
73382;SDS011;61600;48.126;11.542;2022-10-17T13:17:25;2.38;;;1.15;;
73382;SDS011;61600;48.126;11.542;2022-10-17T13:19:58;2.13;;;1.30;;
73382;SDS011;61600;48.126;11.542;2022-10-17T13:22:33;2.70;;;1.60;;
73382;SDS011;61600;48.126;11.542;2022-10-17T13:25:11;4.15;;;1.80;;
73382;SDS011;61600;48.126;11.542;2022-10-17T13:27:39;3.58;;;1.42;;
73382;SDS011;61600;48.126;11.542;2022-10-17T13:32:48;3.08;;;1.60;;
73382;SDS011;61600;48.126;11.542;2022-10-17T13:35:16;2.53;;;1.48;;
73382;SDS011;61600;48.126;11.542;2022-10-17T13:38:04;3.15;;;1.50;;
73382;SDS011;61600;48.126;11.542;2022-10-17T13:40:37;2.90;;;1.50;;
73382;SDS011;61600;48.126;11.542;2022-10-17T13:43:15;3.38;;;1.30;;
73382;SDS011;61600;48.126;11.542;2022-10-17T13:45:52;3.22;;;1.30;;
73382;SDS011;61600;48.126;11.542;2022-10-17T13:48:24;4.95;;;1.88;;
73382;SDS011;61600;48.126;11.542;2022-10-17T13:50:55;4.25;;;1.70;;
73382;SDS011;61600;48.126;11.542;2022-10-17T13:58:38;3.97;;;2.03;;
73382;SDS011;61600;48.126;11.542;2022-10-17T14:01:06;4.57;;;1.80;;
73382;SDS011;61600;48.126;11.542;2022-10-17T14:03:35;6.43;;;1.70;;
73382;SDS011;61600;48.126;11.542;2022-10-17T14:08:38;5.60;;;1.17;;
73382;SDS011;61600;48.126;11.542;2022-10-17T14:11:14;4.35;;;1.65;;
73382;SDS011;61600;48.126;11.542;2022-10-17T14:13:56;2.90;;;1.33;;
73382;SDS011;61600;48.126;11.542;2022-10-17T14:16:23;4.63;;;1.35;;
73382;SDS011;61600;48.126;11.542;2022-10-17T14:18:51;3.63;;;1.60;;
73382;SDS011;61600;48.126;11.542;2022-10-17T14:21:23;3.35;;;1.60;;
73382;SDS011;61600;48.126;11.542;2022-10-17T14:24:11;2.95;;;1.60;;
73382;SDS011;61600;48.126;11.542;2022-10-17T14:26:51;6.57;;;1.73;;
73382;SDS011;61600;48.126;11.542;2022-10-17T14:29:29;3.58;;;1.55;;
73382;SDS011;61600;48.126;11.542;2022-10-17T14:31:57;3.28;;;1.50;;
73382;SDS011;61600;48.126;11.542;2022-10-17T14:34:36;2.92;;;1.50;;
73382;SDS011;61600;48.126;11.542;2022-10-17T14:37:08;5.22;;;1.60;;
73382;SDS011;61600;48.126;11.542;2022-10-17T14:39:38;3.38;;;2.33;;
73382;SDS011;61600;48.126;11.542;2022-10-17T14:42:04;4.03;;;1.60;;
73382;SDS011;61600;48.126;11.542;2022-10-17T14:44:39;5.68;;;2.00;;
73382;SDS011;61600;48.126;11.542;2022-10-17T14:47:14;4.75;;;1.65;;
73382;SDS011;61600;48.126;11.542;2022-10-17T14:49:48;3.20;;;1.77;;
73382;SDS011;61600;48.126;11.542;2022-10-17T14:54:46;3.03;;;1.40;;
73382;SDS011;61600;48.126;11.542;2022-10-17T14:59:57;3.25;;;1.42;;
73382;SDS011;61600;48.126;11.542;2022-10-17T15:02:23;3.15;;;1.38;;
73382;SDS011;61600;48.126;11.542;2022-10-17T15:04:55;5.93;;;1.52;;
73382;SDS011;61600;48.126;11.542;2022-10-17T15:07:25;3.40;;;1.60;;
73382;SDS011;61600;48.126;11.542;2022-10-17T15:09:52;4.88;;;2.20;;
73382;SDS011;61600;48.126;11.542;2022-10-17T15:14:45;3.90;;;1.95;;
73382;SDS011;61600;48.126;11.542;2022-10-17T15:17:14;4.60;;;1.70;;
73382;SDS011;61600;48.126;11.542;2022-10-17T15:19:43;3.55;;;1.77;;
73382;SDS011;61600;48.126;11.542;2022-10-17T15:22:08;5.38;;;1.80;;
73382;SDS011;61600;48.126;11.542;2022-10-17T15:24:34;4.93;;;2.08;;
73382;SDS011;61600;48.126;11.542;2022-10-17T15:27:00;5.30;;;1.88;;
73382;SDS011;61600;48.126;11.542;2022-10-17T15:29:31;2.88;;;1.50;;
73382;SDS011;61600;48.126;11.542;2022-10-17T15:31:57;6.75;;;1.92;;
73382;SDS011;61600;48.126;11.542;2022-10-17T15:34:22;3.85;;;1.67;;
73382;SDS011;61600;48.126;11.542;2022-10-17T15:36:54;2.92;;;1.50;;
73382;SDS011;61600;48.126;11.542;2022-10-17T15:39:20;7.15;;;1.80;;
73382;SDS011;61600;48.126;11.542;2022-10-17T15:41:45;3.35;;;1.42;;
73382;SDS011;61600;48.126;11.542;2022-10-17T15:44:12;3.42;;;1.77;;
73382;SDS011;61600;48.126;11.542;2022-10-17T15:49:06;4.57;;;2.13;;
73382;SDS011;61600;48.126;11.542;2022-10-17T15:51:47;3.35;;;1.60;;
73382;SDS011;61600;48.126;11.542;2022-10-17T15:54:13;5.10;;;2.60;;
73382;SDS011;61600;48.126;11.542;2022-10-17T15:56:47;3.55;;;1.45;;
73382;SDS011;61600;48.126;11.542;2022-10-17T15:59:24;6.93;;;1.90;;
73382;SDS011;61600;48.126;11.542;2022-10-17T16:01:54;7.05;;;1.70;;
73382;SDS011;61600;48.126;11.542;2022-10-17T16:04:20;5.07;;;2.00;;
73382;SDS011;61600;48.126;11.542;2022-10-17T16:06:48;6.88;;;2.17;;
73382;SDS011;61600;48.126;11.542;2022-10-17T16:09:14;3.42;;;1.77;;
73382;SDS011;61600;48.126;11.542;2022-10-17T16:11:42;5.78;;;2.13;;
73382;SDS011;61600;48.126;11.542;2022-10-17T16:14:13;9.02;;;3.00;;
73382;SDS011;61600;48.126;11.542;2022-10-17T16:16:41;8.35;;;2.47;;
73382;SDS011;61600;48.126;11.542;2022-10-17T16:19:12;9.55;;;2.65;;
73382;SDS011;61600;48.126;11.542;2022-10-17T16:21:38;8.85;;;2.95;;
73382;SDS011;61600;48.126;11.542;2022-10-17T16:24:10;6.88;;;3.15;;
73382;SDS011;61600;48.126;11.542;2022-10-17T16:26:37;12.25;;;3.80;;
73382;SDS011;61600;48.126;11.542;2022-10-17T16:29:03;11.95;;;4.57;;
73382;SDS011;61600;48.126;11.542;2022-10-17T16:31:30;9.02;;;3.90;;
73382;SDS011;61600;48.126;11.542;2022-10-17T16:33:58;8.13;;;3.97;;
73382;SDS011;61600;48.126;11.542;2022-10-17T16:36:25;9.15;;;4.03;;
73382;SDS011;61600;48.126;11.542;2022-10-17T16:38:51;10.40;;;3.50;;
73382;SDS011;61600;48.126;11.542;2022-10-17T16:43:48;7.60;;;3.42;;
73382;SDS011;61600;48.126;11.542;2022-10-17T16:46:15;6.25;;;3.17;;
73382;SDS011;61600;48.126;11.542;2022-10-17T16:48:46;8.48;;;3.40;;
73382;SDS011;61600;48.126;11.542;2022-10-17T16:51:13;6.57;;;2.95;;
73382;SDS011;61600;48.126;11.542;2022-10-17T16:53:39;5.22;;;2.55;;
73382;SDS011;61600;48.126;11.542;2022-10-17T16:56:08;6.38;;;2.70;;
73382;SDS011;61600;48.126;11.542;2022-10-17T16:58:37;9.18;;;2.78;;
73382;SDS011;61600;48.126;11.542;2022-10-17T17:01:14;5.90;;;2.70;;
73382;SDS011;61600;48.126;11.542;2022-10-17T17:03:55;6.63;;;3.05;;
73382;SDS011;61600;48.126;11.542;2022-10-17T17:06:22;5.63;;;2.67;;
73382;SDS011;61600;48.126;11.542;2022-10-17T17:08:51;6.63;;;3.03;;
73382;SDS011;61600;48.126;11.542;2022-10-17T17:11:19;9.27;;;3.03;;
73382;SDS011;61600;48.126;11.542;2022-10-17T17:13:45;5.15;;;2.45;;
73382;SDS011;61600;48.126;11.542;2022-10-17T17:16:16;6.45;;;2.72;;
73382;SDS011;61600;48.126;11.542;2022-10-17T17:18:47;7.43;;;2.75;;
73382;SDS011;61600;48.126;11.542;2022-10-17T17:21:15;8.20;;;2.83;;
73382;SDS011;61600;48.126;11.542;2022-10-17T17:23:41;7.10;;;3.03;;
73382;SDS011;61600;48.126;11.542;2022-10-17T17:26:15;5.05;;;2.50;;